sensor_id;sensor_type;location;lat;lon;timestamp;P1;durP1;ratioP1;P2;durP2;ratioP2
2772;SDS011;1394;47.044;15.744;2023-07-29T00:01:30;24.60;;;1.60;;
2772;SDS011;1394;47.044;15.744;2023-07-29T00:03:59;24.60;;;1.50;;
2772;SDS011;1394;47.044;15.744;2023-07-29T00:06:27;25.00;;;1.50;;
2772;SDS011;1394;47.044;15.744;2023-07-29T00:08:54;24.83;;;1.30;;
2772;SDS011;1394;47.044;15.744;2023-07-29T00:11:23;24.87;;;1.53;;
2772;SDS011;1394;47.044;15.744;2023-07-29T00:13:51;24.90;;;1.57;;
2772;SDS011;1394;47.044;15.744;2023-07-29T00:16:19;25.23;;;1.50;;
2772;SDS011;1394;47.044;15.744;2023-07-29T00:18:47;25.07;;;1.47;;
2772;SDS011;1394;47.044;15.744;2023-07-29T00:21:14;24.40;;;1.27;;
2772;SDS011;1394;47.044;15.744;2023-07-29T00:23:42;25.23;;;1.40;;
2772;SDS011;1394;47.044;15.744;2023-07-29T00:26:09;24.67;;;1.20;;
2772;SDS011;1394;47.044;15.744;2023-07-29T00:28:40;24.73;;;1.50;;
2772;SDS011;1394;47.044;15.744;2023-07-29T00:31:08;24.90;;;1.57;;
2772;SDS011;1394;47.044;15.744;2023-07-29T00:33:37;24.70;;;1.30;;
2772;SDS011;1394;47.044;15.744;2023-07-29T00:36:05;25.70;;;1.40;;
2772;SDS011;1394;47.044;15.744;2023-07-29T00:38:32;24.80;;;1.27;;
2772;SDS011;1394;47.044;15.744;2023-07-29T00:41:00;26.43;;;1.30;;
2772;SDS011;1394;47.044;15.744;2023-07-29T00:43:29;24.40;;;1.13;;
2772;SDS011;1394;47.044;15.744;2023-07-29T00:45:58;25.30;;;1.27;;
2772;SDS011;1394;47.044;15.744;2023-07-29T00:48:27;24.50;;;1.27;;
2772;SDS011;1394;47.044;15.744;2023-07-29T00:50:54;24.57;;;1.27;;
2772;SDS011;1394;47.044;15.744;2023-07-29T00:53:22;24.40;;;1.20;;
2772;SDS011;1394;47.044;15.744;2023-07-29T00:55:49;24.40;;;1.20;;
2772;SDS011;1394;47.044;15.744;2023-07-29T00:58:17;24.77;;;1.20;;
2772;SDS011;1394;47.044;15.744;2023-07-29T01:00:45;24.63;;;1.13;;
2772;SDS011;1394;47.044;15.744;2023-07-29T01:03:14;25.50;;;1.17;;
2772;SDS011;1394;47.044;15.744;2023-07-29T01:05:44;24.83;;;1.37;;
2772;SDS011;1394;47.044;15.744;2023-07-29T01:08:17;24.57;;;1.20;;
2772;SDS011;1394;47.044;15.744;2023-07-29T01:10:51;24.50;;;1.27;;
2772;SDS011;1394;47.044;15.744;2023-07-29T01:13:23;24.70;;;1.63;;
2772;SDS011;1394;47.044;15.744;2023-07-29T01:15:54;24.20;;;1.10;;
2772;SDS011;1394;47.044;15.744;2023-07-29T01:18:24;24.30;;;1.10;;
2772;SDS011;1394;47.044;15.744;2023-07-29T01:20:53;24.67;;;1.40;;
2772;SDS011;1394;47.044;15.744;2023-07-29T01:23:24;24.73;;;1.37;;
2772;SDS011;1394;47.044;15.744;2023-07-29T01:25:52;24.30;;;1.13;;
2772;SDS011;1394;47.044;15.744;2023-07-29T01:31:30;24.83;;;1.40;;
2772;SDS011;1394;47.044;15.744;2023-07-29T01:33:59;24.40;;;1.40;;
2772;SDS011;1394;47.044;15.744;2023-07-29T01:36:29;24.50;;;1.30;;
2772;SDS011;1394;47.044;15.744;2023-07-29T01:39:00;24.87;;;1.70;;
2772;SDS011;1394;47.044;15.744;2023-07-29T01:41:29;24.90;;;1.53;;
2772;SDS011;1394;47.044;15.744;2023-07-29T01:43:57;24.57;;;1.30;;
2772;SDS011;1394;47.044;15.744;2023-07-29T01:46:25;25.13;;;1.47;;
2772;SDS011;1394;47.044;15.744;2023-07-29T01:48:52;24.73;;;1.20;;
2772;SDS011;1394;47.044;15.744;2023-07-29T01:51:19;24.87;;;1.30;;
2772;SDS011;1394;47.044;15.744;2023-07-29T01:53:47;24.73;;;1.40;;
2772;SDS011;1394;47.044;15.744;2023-07-29T01:56:16;24.90;;;1.70;;
2772;SDS011;1394;47.044;15.744;2023-07-29T01:58:43;24.67;;;1.30;;
2772;SDS011;1394;47.044;15.744;2023-07-29T02:01:11;24.57;;;1.40;;
2772;SDS011;1394;47.044;15.744;2023-07-29T02:03:38;25.33;;;1.63;;
2772;SDS011;1394;47.044;15.744;2023-07-29T02:06:06;24.43;;;1.20;;
2772;SDS011;1394;47.044;15.744;2023-07-29T02:08:33;24.70;;;1.30;;
2772;SDS011;1394;47.044;15.744;2023-07-29T02:11:01;24.50;;;1.40;;
2772;SDS011;1394;47.044;15.744;2023-07-29T02:13:31;24.60;;;1.17;;
2772;SDS011;1394;47.044;15.744;2023-07-29T02:15:58;24.83;;;1.30;;
2772;SDS011;1394;47.044;15.744;2023-07-29T02:18:25;24.77;;;1.30;;
2772;SDS011;1394;47.044;15.744;2023-07-29T02:20:53;25.27;;;1.40;;
2772;SDS011;1394;47.044;15.744;2023-07-29T02:23:20;25.00;;;1.57;;
2772;SDS011;1394;47.044;15.744;2023-07-29T02:25:50;25.47;;;1.40;;
2772;SDS011;1394;47.044;15.744;2023-07-29T02:28:17;25.10;;;1.53;;
2772;SDS011;1394;47.044;15.744;2023-07-29T02:30:46;24.73;;;1.20;;
2772;SDS011;1394;47.044;15.744;2023-07-29T02:33:14;24.60;;;1.47;;
2772;SDS011;1394;47.044;15.744;2023-07-29T02:35:42;24.80;;;1.30;;
2772;SDS011;1394;47.044;15.744;2023-07-29T02:38:09;24.80;;;1.27;;
2772;SDS011;1394;47.044;15.744;2023-07-29T02:40:39;25.50;;;1.43;;
2772;SDS011;1394;47.044;15.744;2023-07-29T02:43:06;24.70;;;1.00;;
2772;SDS011;1394;47.044;15.744;2023-07-29T02:45:33;25.00;;;1.30;;
2772;SDS011;1394;47.044;15.744;2023-07-29T02:48:02;24.67;;;1.40;;
2772;SDS011;1394;47.044;15.744;2023-07-29T02:50:29;24.73;;;1.57;;
2772;SDS011;1394;47.044;15.744;2023-07-29T02:52:59;26.97;;;1.47;;
2772;SDS011;1394;47.044;15.744;2023-07-29T02:55:27;26.70;;;1.30;;
2772;SDS011;1394;47.044;15.744;2023-07-29T02:57:54;24.40;;;1.37;;
2772;SDS011;1394;47.044;15.744;2023-07-29T03:00:23;24.77;;;1.40;;
2772;SDS011;1394;47.044;15.744;2023-07-29T03:02:50;25.23;;;1.40;;
2772;SDS011;1394;47.044;15.744;2023-07-29T03:05:21;25.17;;;1.37;;
2772;SDS011;1394;47.044;15.744;2023-07-29T03:07:49;25.07;;;1.40;;
2772;SDS011;1394;47.044;15.744;2023-07-29T03:10:16;26.50;;;1.83;;
2772;SDS011;1394;47.044;15.744;2023-07-29T03:12:44;24.40;;;1.20;;
2772;SDS011;1394;47.044;15.744;2023-07-29T03:15:11;24.60;;;1.50;;
2772;SDS011;1394;47.044;15.744;2023-07-29T03:17:39;24.40;;;1.20;;
2772;SDS011;1394;47.044;15.744;2023-07-29T03:20:07;24.80;;;1.10;;
2772;SDS011;1394;47.044;15.744;2023-07-29T03:22:49;25.03;;;1.10;;
2772;SDS011;1394;47.044;15.744;2023-07-29T03:25:16;24.50;;;1.27;;
2772;SDS011;1394;47.044;15.744;2023-07-29T03:27:44;24.40;;;1.07;;
2772;SDS011;1394;47.044;15.744;2023-07-29T03:30:14;24.50;;;1.10;;
2772;SDS011;1394;47.044;15.744;2023-07-29T03:32:43;24.30;;;1.00;;
2772;SDS011;1394;47.044;15.744;2023-07-29T03:35:11;24.77;;;1.27;;
2772;SDS011;1394;47.044;15.744;2023-07-29T03:37:40;24.87;;;1.37;;
2772;SDS011;1394;47.044;15.744;2023-07-29T03:40:11;24.63;;;1.60;;
2772;SDS011;1394;47.044;15.744;2023-07-29T03:42:39;24.80;;;1.10;;
2772;SDS011;1394;47.044;15.744;2023-07-29T03:45:07;25.13;;;1.30;;
2772;SDS011;1394;47.044;15.744;2023-07-29T03:47:35;24.50;;;0.90;;
2772;SDS011;1394;47.044;15.744;2023-07-29T03:50:02;24.63;;;1.40;;
2772;SDS011;1394;47.044;15.744;2023-07-29T03:52:30;24.30;;;0.90;;
2772;SDS011;1394;47.044;15.744;2023-07-29T03:54:57;24.57;;;1.30;;
2772;SDS011;1394;47.044;15.744;2023-07-29T03:57:26;24.37;;;1.17;;
2772;SDS011;1394;47.044;15.744;2023-07-29T03:59:54;26.07;;;1.47;;
2772;SDS011;1394;47.044;15.744;2023-07-29T04:02:21;24.60;;;1.20;;
2772;SDS011;1394;47.044;15.744;2023-07-29T04:04:49;24.57;;;1.00;;
2772;SDS011;1394;47.044;15.744;2023-07-29T04:07:17;24.83;;;1.20;;
2772;SDS011;1394;47.044;15.744;2023-07-29T04:09:44;24.23;;;1.10;;
2772;SDS011;1394;47.044;15.744;2023-07-29T04:12:11;24.70;;;1.40;;
2772;SDS011;1394;47.044;15.744;2023-07-29T04:14:40;25.23;;;1.30;;
2772;SDS011;1394;47.044;15.744;2023-07-29T04:17:10;24.47;;;1.23;;
2772;SDS011;1394;47.044;15.744;2023-07-29T04:19:38;24.67;;;1.20;;
2772;SDS011;1394;47.044;15.744;2023-07-29T04:22:05;25.00;;;1.50;;
2772;SDS011;1394;47.044;15.744;2023-07-29T04:24:33;24.60;;;1.30;;
2772;SDS011;1394;47.044;15.744;2023-07-29T04:27:00;24.50;;;1.10;;
2772;SDS011;1394;47.044;15.744;2023-07-29T04:29:28;24.53;;;1.30;;
2772;SDS011;1394;47.044;15.744;2023-07-29T04:31:56;25.07;;;1.40;;
2772;SDS011;1394;47.044;15.744;2023-07-29T04:34:24;24.50;;;1.20;;
2772;SDS011;1394;47.044;15.744;2023-07-29T04:36:51;24.63;;;1.30;;
2772;SDS011;1394;47.044;15.744;2023-07-29T04:39:18;25.23;;;1.37;;
2772;SDS011;1394;47.044;15.744;2023-07-29T04:41:46;24.40;;;1.10;;
2772;SDS011;1394;47.044;15.744;2023-07-29T04:44:16;24.70;;;1.50;;
2772;SDS011;1394;47.044;15.744;2023-07-29T04:46:44;24.60;;;1.33;;
2772;SDS011;1394;47.044;15.744;2023-07-29T04:49:15;24.90;;;1.20;;
2772;SDS011;1394;47.044;15.744;2023-07-29T04:51:43;24.67;;;1.10;;
2772;SDS011;1394;47.044;15.744;2023-07-29T04:54:11;24.57;;;1.37;;
2772;SDS011;1394;47.044;15.744;2023-07-29T04:56:40;24.40;;;1.20;;
2772;SDS011;1394;47.044;15.744;2023-07-29T04:59:08;24.97;;;1.30;;
2772;SDS011;1394;47.044;15.744;2023-07-29T05:01:38;24.50;;;1.30;;
2772;SDS011;1394;47.044;15.744;2023-07-29T05:04:06;24.77;;;1.20;;
2772;SDS011;1394;47.044;15.744;2023-07-29T05:06:36;24.67;;;1.20;;
2772;SDS011;1394;47.044;15.744;2023-07-29T05:09:13;24.67;;;1.27;;
2772;SDS011;1394;47.044;15.744;2023-07-29T05:11:41;25.03;;;1.40;;
2772;SDS011;1394;47.044;15.744;2023-07-29T05:14:09;24.60;;;1.33;;
2772;SDS011;1394;47.044;15.744;2023-07-29T05:16:36;24.40;;;1.20;;
2772;SDS011;1394;47.044;15.744;2023-07-29T05:19:04;24.93;;;1.60;;
2772;SDS011;1394;47.044;15.744;2023-07-29T05:21:31;24.97;;;1.60;;
2772;SDS011;1394;47.044;15.744;2023-07-29T05:24:00;25.00;;;1.30;;
2772;SDS011;1394;47.044;15.744;2023-07-29T05:26:27;24.40;;;1.20;;
2772;SDS011;1394;47.044;15.744;2023-07-29T05:28:55;24.60;;;1.50;;
2772;SDS011;1394;47.044;15.744;2023-07-29T05:31:22;25.17;;;1.80;;
2772;SDS011;1394;47.044;15.744;2023-07-29T05:33:53;24.50;;;1.27;;
2772;SDS011;1394;47.044;15.744;2023-07-29T05:36:22;25.73;;;1.40;;
2772;SDS011;1394;47.044;15.744;2023-07-29T05:38:52;24.73;;;1.20;;
2772;SDS011;1394;47.044;15.744;2023-07-29T05:41:23;24.40;;;1.20;;
2772;SDS011;1394;47.044;15.744;2023-07-29T05:43:51;24.63;;;1.37;;
2772;SDS011;1394;47.044;15.744;2023-07-29T05:46:18;24.50;;;1.30;;
2772;SDS011;1394;47.044;15.744;2023-07-29T05:48:46;27.07;;;1.30;;
2772;SDS011;1394;47.044;15.744;2023-07-29T05:51:13;26.70;;;1.43;;
2772;SDS011;1394;47.044;15.744;2023-07-29T05:53:45;24.63;;;1.27;;
2772;SDS011;1394;47.044;15.744;2023-07-29T05:56:13;25.27;;;1.30;;
2772;SDS011;1394;47.044;15.744;2023-07-29T05:58:43;25.07;;;1.17;;
2772;SDS011;1394;47.044;15.744;2023-07-29T06:01:11;24.50;;;1.33;;
2772;SDS011;1394;47.044;15.744;2023-07-29T06:03:39;27.10;;;1.40;;
2772;SDS011;1394;47.044;15.744;2023-07-29T06:06:06;26.87;;;1.53;;
2772;SDS011;1394;47.044;15.744;2023-07-29T06:08:33;24.90;;;1.33;;
2772;SDS011;1394;47.044;15.744;2023-07-29T06:11:01;24.37;;;1.00;;
2772;SDS011;1394;47.044;15.744;2023-07-29T06:13:28;24.30;;;1.30;;
2772;SDS011;1394;47.044;15.744;2023-07-29T06:15:59;24.70;;;1.33;;
2772;SDS011;1394;47.044;15.744;2023-07-29T06:18:27;24.57;;;1.40;;
2772;SDS011;1394;47.044;15.744;2023-07-29T06:20:55;25.07;;;1.40;;
2772;SDS011;1394;47.044;15.744;2023-07-29T06:23:32;25.23;;;1.50;;
2772;SDS011;1394;47.044;15.744;2023-07-29T06:26:07;24.70;;;1.33;;
2772;SDS011;1394;47.044;15.744;2023-07-29T06:28:40;24.47;;;1.50;;
2772;SDS011;1394;47.044;15.744;2023-07-29T06:31:18;24.40;;;1.43;;
2772;SDS011;1394;47.044;15.744;2023-07-29T06:33:47;25.07;;;1.30;;
2772;SDS011;1394;47.044;15.744;2023-07-29T06:36:15;24.30;;;1.20;;
2772;SDS011;1394;47.044;15.744;2023-07-29T06:38:43;25.23;;;1.43;;
2772;SDS011;1394;47.044;15.744;2023-07-29T06:41:12;24.53;;;1.40;;
2772;SDS011;1394;47.044;15.744;2023-07-29T06:43:39;24.53;;;1.20;;
2772;SDS011;1394;47.044;15.744;2023-07-29T06:46:07;24.93;;;1.27;;
2772;SDS011;1394;47.044;15.744;2023-07-29T06:48:36;24.60;;;1.30;;
2772;SDS011;1394;47.044;15.744;2023-07-29T06:51:04;24.67;;;1.13;;
2772;SDS011;1394;47.044;15.744;2023-07-29T06:53:32;24.80;;;1.20;;
2772;SDS011;1394;47.044;15.744;2023-07-29T06:56:00;24.60;;;1.20;;
2772;SDS011;1394;47.044;15.744;2023-07-29T06:58:28;24.30;;;1.00;;
2772;SDS011;1394;47.044;15.744;2023-07-29T07:00:56;24.70;;;1.53;;
2772;SDS011;1394;47.044;15.744;2023-07-29T07:03:23;25.20;;;1.60;;
2772;SDS011;1394;47.044;15.744;2023-07-29T07:05:54;24.67;;;1.30;;
2772;SDS011;1394;47.044;15.744;2023-07-29T07:08:22;24.40;;;1.20;;
2772;SDS011;1394;47.044;15.744;2023-07-29T07:10:50;25.63;;;1.27;;
2772;SDS011;1394;47.044;15.744;2023-07-29T07:13:19;24.60;;;1.20;;
2772;SDS011;1394;47.044;15.744;2023-07-29T07:15:47;24.87;;;1.50;;
2772;SDS011;1394;47.044;15.744;2023-07-29T07:18:14;24.80;;;1.40;;
2772;SDS011;1394;47.044;15.744;2023-07-29T07:20:42;24.70;;;1.40;;
2772;SDS011;1394;47.044;15.744;2023-07-29T07:23:11;24.90;;;1.20;;
2772;SDS011;1394;47.044;15.744;2023-07-29T07:25:38;24.40;;;1.30;;
2772;SDS011;1394;47.044;15.744;2023-07-29T07:28:08;31.53;;;1.80;;
2772;SDS011;1394;47.044;15.744;2023-07-29T07:30:39;28.33;;;1.70;;
2772;SDS011;1394;47.044;15.744;2023-07-29T07:33:07;27.57;;;1.63;;
2772;SDS011;1394;47.044;15.744;2023-07-29T07:35:35;26.40;;;1.40;;
2772;SDS011;1394;47.044;15.744;2023-07-29T07:38:04;24.80;;;1.20;;
2772;SDS011;1394;47.044;15.744;2023-07-29T07:40:36;24.70;;;1.20;;
2772;SDS011;1394;47.044;15.744;2023-07-29T07:43:31;24.60;;;0.97;;
2772;SDS011;1394;47.044;15.744;2023-07-29T07:46:17;25.00;;;1.20;;
2772;SDS011;1394;47.044;15.744;2023-07-29T07:48:47;25.10;;;1.13;;
2772;SDS011;1394;47.044;15.744;2023-07-29T07:51:14;24.50;;;1.20;;
2772;SDS011;1394;47.044;15.744;2023-07-29T07:53:43;25.20;;;1.20;;
2772;SDS011;1394;47.044;15.744;2023-07-29T07:56:12;24.53;;;1.23;;
2772;SDS011;1394;47.044;15.744;2023-07-29T07:58:40;24.50;;;1.10;;
2772;SDS011;1394;47.044;15.744;2023-07-29T08:01:08;26.00;;;1.50;;
2772;SDS011;1394;47.044;15.744;2023-07-29T08:03:38;24.60;;;1.20;;
2772;SDS011;1394;47.044;15.744;2023-07-29T08:06:05;24.40;;;1.20;;
2772;SDS011;1394;47.044;15.744;2023-07-29T08:08:32;24.60;;;1.20;;
2772;SDS011;1394;47.044;15.744;2023-07-29T08:10:59;25.10;;;1.13;;
2772;SDS011;1394;47.044;15.744;2023-07-29T08:13:36;24.83;;;1.43;;
2772;SDS011;1394;47.044;15.744;2023-07-29T08:16:13;24.50;;;1.10;;
2772;SDS011;1394;47.044;15.744;2023-07-29T08:18:43;25.30;;;1.17;;
2772;SDS011;1394;47.044;15.744;2023-07-29T08:21:17;25.07;;;1.33;;
2772;SDS011;1394;47.044;15.744;2023-07-29T08:24:08;24.60;;;1.40;;
2772;SDS011;1394;47.044;15.744;2023-07-29T08:26:39;24.70;;;1.30;;
2772;SDS011;1394;47.044;15.744;2023-07-29T08:29:08;24.70;;;1.03;;
2772;SDS011;1394;47.044;15.744;2023-07-29T08:31:35;24.50;;;1.17;;
2772;SDS011;1394;47.044;15.744;2023-07-29T08:34:03;24.70;;;1.10;;
2772;SDS011;1394;47.044;15.744;2023-07-29T08:36:33;24.60;;;1.30;;
2772;SDS011;1394;47.044;15.744;2023-07-29T08:39:00;24.80;;;1.47;;
2772;SDS011;1394;47.044;15.744;2023-07-29T08:41:29;25.00;;;1.53;;
2772;SDS011;1394;47.044;15.744;2023-07-29T08:43:59;24.80;;;1.20;;
2772;SDS011;1394;47.044;15.744;2023-07-29T08:46:30;26.30;;;1.50;;
2772;SDS011;1394;47.044;15.744;2023-07-29T08:48:58;24.70;;;1.30;;
2772;SDS011;1394;47.044;15.744;2023-07-29T08:51:28;24.60;;;1.10;;
2772;SDS011;1394;47.044;15.744;2023-07-29T08:53:57;24.80;;;1.30;;
2772;SDS011;1394;47.044;15.744;2023-07-29T08:56:25;24.67;;;1.40;;
2772;SDS011;1394;47.044;15.744;2023-07-29T08:58:56;25.13;;;1.03;;
2772;SDS011;1394;47.044;15.744;2023-07-29T09:01:40;24.60;;;1.13;;
2772;SDS011;1394;47.044;15.744;2023-07-29T09:04:19;24.40;;;1.10;;
2772;SDS011;1394;47.044;15.744;2023-07-29T09:06:48;24.60;;;1.23;;
2772;SDS011;1394;47.044;15.744;2023-07-29T09:09:20;24.77;;;1.40;;
2772;SDS011;1394;47.044;15.744;2023-07-29T09:11:50;24.50;;;1.30;;
2772;SDS011;1394;47.044;15.744;2023-07-29T09:14:23;24.30;;;1.20;;
2772;SDS011;1394;47.044;15.744;2023-07-29T09:16:52;24.30;;;1.13;;
2772;SDS011;1394;47.044;15.744;2023-07-29T09:19:19;25.03;;;1.10;;
2772;SDS011;1394;47.044;15.744;2023-07-29T09:21:48;24.27;;;1.13;;
2772;SDS011;1394;47.044;15.744;2023-07-29T09:24:16;24.20;;;1.10;;
2772;SDS011;1394;47.044;15.744;2023-07-29T09:26:48;24.30;;;1.10;;
2772;SDS011;1394;47.044;15.744;2023-07-29T09:29:15;24.70;;;1.10;;
2772;SDS011;1394;47.044;15.744;2023-07-29T09:31:46;25.30;;;1.00;;
2772;SDS011;1394;47.044;15.744;2023-07-29T09:34:16;24.70;;;1.20;;
2772;SDS011;1394;47.044;15.744;2023-07-29T09:36:44;24.60;;;1.17;;
2772;SDS011;1394;47.044;15.744;2023-07-29T09:39:13;24.83;;;1.30;;
2772;SDS011;1394;47.044;15.744;2023-07-29T09:41:41;24.73;;;1.47;;
2772;SDS011;1394;47.044;15.744;2023-07-29T09:44:15;24.20;;;1.17;;
2772;SDS011;1394;47.044;15.744;2023-07-29T09:46:45;25.07;;;1.20;;
2772;SDS011;1394;47.044;15.744;2023-07-29T09:49:18;24.37;;;1.10;;
2772;SDS011;1394;47.044;15.744;2023-07-29T09:51:45;24.00;;;0.80;;
2772;SDS011;1394;47.044;15.744;2023-07-29T09:54:14;24.30;;;1.10;;
2772;SDS011;1394;47.044;15.744;2023-07-29T09:56:44;24.10;;;0.93;;
2772;SDS011;1394;47.044;15.744;2023-07-29T09:59:11;24.47;;;1.17;;
2772;SDS011;1394;47.044;15.744;2023-07-29T10:01:40;24.40;;;1.20;;
2772;SDS011;1394;47.044;15.744;2023-07-29T10:04:09;24.10;;;1.03;;
2772;SDS011;1394;47.044;15.744;2023-07-29T10:06:39;24.50;;;0.97;;
2772;SDS011;1394;47.044;15.744;2023-07-29T10:09:07;26.50;;;1.17;;
2772;SDS011;1394;47.044;15.744;2023-07-29T10:11:37;24.93;;;0.80;;
2772;SDS011;1394;47.044;15.744;2023-07-29T10:14:06;24.60;;;1.00;;
2772;SDS011;1394;47.044;15.744;2023-07-29T10:16:35;24.40;;;1.37;;
2772;SDS011;1394;47.044;15.744;2023-07-29T10:19:09;24.73;;;1.00;;
2772;SDS011;1394;47.044;15.744;2023-07-29T10:21:40;24.30;;;0.90;;
2772;SDS011;1394;47.044;15.744;2023-07-29T10:24:11;24.47;;;1.00;;
2772;SDS011;1394;47.044;15.744;2023-07-29T10:26:41;24.10;;;1.00;;
2772;SDS011;1394;47.044;15.744;2023-07-29T10:29:12;24.10;;;1.00;;
2772;SDS011;1394;47.044;15.744;2023-07-29T10:31:39;24.07;;;0.90;;
2772;SDS011;1394;47.044;15.744;2023-07-29T10:34:07;24.30;;;0.93;;
2772;SDS011;1394;47.044;15.744;2023-07-29T10:36:36;24.40;;;1.10;;
2772;SDS011;1394;47.044;15.744;2023-07-29T10:39:07;24.13;;;0.93;;
2772;SDS011;1394;47.044;15.744;2023-07-29T10:41:55;24.53;;;1.07;;
2772;SDS011;1394;47.044;15.744;2023-07-29T10:47:10;24.37;;;0.90;;
2772;SDS011;1394;47.044;15.744;2023-07-29T10:49:39;24.37;;;1.00;;
2772;SDS011;1394;47.044;15.744;2023-07-29T10:52:08;24.17;;;1.10;;
2772;SDS011;1394;47.044;15.744;2023-07-29T10:54:43;23.90;;;0.90;;
2772;SDS011;1394;47.044;15.744;2023-07-29T10:57:13;24.10;;;1.10;;
2772;SDS011;1394;47.044;15.744;2023-07-29T10:59:41;24.10;;;0.90;;
2772;SDS011;1394;47.044;15.744;2023-07-29T11:02:12;24.10;;;0.93;;
2772;SDS011;1394;47.044;15.744;2023-07-29T11:04:51;24.10;;;1.00;;
2772;SDS011;1394;47.044;15.744;2023-07-29T11:07:22;24.60;;;0.80;;
2772;SDS011;1394;47.044;15.744;2023-07-29T11:09:53;24.27;;;1.00;;
2772;SDS011;1394;47.044;15.744;2023-07-29T11:15:18;24.10;;;0.97;;
2772;SDS011;1394;47.044;15.744;2023-07-29T11:17:46;24.87;;;0.93;;
2772;SDS011;1394;47.044;15.744;2023-07-29T11:20:14;24.13;;;1.10;;
2772;SDS011;1394;47.044;15.744;2023-07-29T11:22:46;24.53;;;0.80;;
2772;SDS011;1394;47.044;15.744;2023-07-29T11:25:21;24.00;;;0.90;;
2772;SDS011;1394;47.044;15.744;2023-07-29T11:27:50;24.00;;;1.00;;
2772;SDS011;1394;47.044;15.744;2023-07-29T11:30:22;23.97;;;0.90;;
2772;SDS011;1394;47.044;15.744;2023-07-29T11:32:51;23.90;;;0.80;;
2772;SDS011;1394;47.044;15.744;2023-07-29T11:35:20;24.00;;;0.97;;
2772;SDS011;1394;47.044;15.744;2023-07-29T11:37:47;23.90;;;0.80;;
2772;SDS011;1394;47.044;15.744;2023-07-29T11:40:16;24.70;;;1.13;;
2772;SDS011;1394;47.044;15.744;2023-07-29T11:42:52;23.80;;;0.93;;
2772;SDS011;1394;47.044;15.744;2023-07-29T11:45:20;23.90;;;1.00;;
2772;SDS011;1394;47.044;15.744;2023-07-29T11:47:48;24.00;;;0.90;;
2772;SDS011;1394;47.044;15.744;2023-07-29T11:50:16;24.00;;;0.97;;
2772;SDS011;1394;47.044;15.744;2023-07-29T11:52:46;24.13;;;0.80;;
2772;SDS011;1394;47.044;15.744;2023-07-29T11:55:14;23.93;;;0.80;;
2772;SDS011;1394;47.044;15.744;2023-07-29T11:57:44;23.83;;;0.70;;
2772;SDS011;1394;47.044;15.744;2023-07-29T12:00:12;24.07;;;0.80;;
2772;SDS011;1394;47.044;15.744;2023-07-29T12:02:40;23.80;;;0.90;;
2772;SDS011;1394;47.044;15.744;2023-07-29T12:05:09;24.27;;;1.13;;
2772;SDS011;1394;47.044;15.744;2023-07-29T12:07:40;24.00;;;0.93;;
2772;SDS011;1394;47.044;15.744;2023-07-29T12:10:18;24.00;;;0.90;;
2772;SDS011;1394;47.044;15.744;2023-07-29T12:12:47;23.70;;;0.70;;
2772;SDS011;1394;47.044;15.744;2023-07-29T12:15:26;23.60;;;0.90;;
2772;SDS011;1394;47.044;15.744;2023-07-29T12:17:58;23.70;;;0.70;;
2772;SDS011;1394;47.044;15.744;2023-07-29T12:20:26;23.90;;;0.90;;
2772;SDS011;1394;47.044;15.744;2023-07-29T12:22:57;24.00;;;0.90;;
2772;SDS011;1394;47.044;15.744;2023-07-29T12:25:26;23.97;;;0.90;;
2772;SDS011;1394;47.044;15.744;2023-07-29T12:27:57;23.90;;;0.90;;
2772;SDS011;1394;47.044;15.744;2023-07-29T12:30:30;23.80;;;0.80;;
2772;SDS011;1394;47.044;15.744;2023-07-29T12:33:02;23.70;;;0.70;;
2772;SDS011;1394;47.044;15.744;2023-07-29T12:35:35;23.87;;;0.90;;
2772;SDS011;1394;47.044;15.744;2023-07-29T12:38:02;23.80;;;0.80;;
2772;SDS011;1394;47.044;15.744;2023-07-29T12:40:30;24.00;;;1.10;;
2772;SDS011;1394;47.044;15.744;2023-07-29T12:42:57;24.73;;;1.17;;
2772;SDS011;1394;47.044;15.744;2023-07-29T12:45:25;24.43;;;1.07;;
2772;SDS011;1394;47.044;15.744;2023-07-29T12:47:55;23.80;;;0.90;;
2772;SDS011;1394;47.044;15.744;2023-07-29T12:50:26;23.90;;;0.90;;
2772;SDS011;1394;47.044;15.744;2023-07-29T12:52:57;24.87;;;0.97;;
2772;SDS011;1394;47.044;15.744;2023-07-29T12:55:27;23.90;;;1.00;;
2772;SDS011;1394;47.044;15.744;2023-07-29T12:57:56;24.03;;;0.73;;
2772;SDS011;1394;47.044;15.744;2023-07-29T13:00:28;24.00;;;1.00;;
2772;SDS011;1394;47.044;15.744;2023-07-29T13:03:03;23.60;;;0.77;;
2772;SDS011;1394;47.044;15.744;2023-07-29T13:05:32;23.70;;;0.93;;
2772;SDS011;1394;47.044;15.744;2023-07-29T13:08:08;23.77;;;1.03;;
2772;SDS011;1394;47.044;15.744;2023-07-29T13:10:37;23.90;;;1.00;;
2772;SDS011;1394;47.044;15.744;2023-07-29T13:13:04;23.80;;;1.10;;
2772;SDS011;1394;47.044;15.744;2023-07-29T13:15:31;24.03;;;1.00;;
2772;SDS011;1394;47.044;15.744;2023-07-29T13:18:02;23.70;;;1.00;;
2772;SDS011;1394;47.044;15.744;2023-07-29T13:20:31;23.70;;;0.90;;
2772;SDS011;1394;47.044;15.744;2023-07-29T13:22:59;23.73;;;0.77;;
2772;SDS011;1394;47.044;15.744;2023-07-29T13:25:27;24.07;;;1.00;;
2772;SDS011;1394;47.044;15.744;2023-07-29T13:27:57;24.00;;;0.90;;
2772;SDS011;1394;47.044;15.744;2023-07-29T13:30:24;23.70;;;0.90;;
2772;SDS011;1394;47.044;15.744;2023-07-29T13:32:52;23.90;;;1.20;;
2772;SDS011;1394;47.044;15.744;2023-07-29T13:35:25;23.77;;;0.90;;
2772;SDS011;1394;47.044;15.744;2023-07-29T13:37:53;23.90;;;0.90;;
2772;SDS011;1394;47.044;15.744;2023-07-29T13:40:21;23.60;;;0.80;;
2772;SDS011;1394;47.044;15.744;2023-07-29T13:42:50;24.13;;;1.10;;
2772;SDS011;1394;47.044;15.744;2023-07-29T13:45:18;23.80;;;1.00;;
2772;SDS011;1394;47.044;15.744;2023-07-29T13:47:47;23.70;;;0.80;;
2772;SDS011;1394;47.044;15.744;2023-07-29T13:50:16;23.70;;;0.70;;
2772;SDS011;1394;47.044;15.744;2023-07-29T13:52:45;23.80;;;0.90;;
2772;SDS011;1394;47.044;15.744;2023-07-29T13:55:12;24.07;;;1.00;;
2772;SDS011;1394;47.044;15.744;2023-07-29T13:57:44;23.80;;;0.80;;
2772;SDS011;1394;47.044;15.744;2023-07-29T14:00:12;25.40;;;1.13;;
2772;SDS011;1394;47.044;15.744;2023-07-29T14:02:39;24.27;;;1.00;;
2772;SDS011;1394;47.044;15.744;2023-07-29T14:05:07;23.77;;;0.90;;
2772;SDS011;1394;47.044;15.744;2023-07-29T14:07:36;24.00;;;0.97;;
2772;SDS011;1394;47.044;15.744;2023-07-29T14:10:06;24.00;;;0.80;;
2772;SDS011;1394;47.044;15.744;2023-07-29T14:12:34;24.30;;;0.80;;
2772;SDS011;1394;47.044;15.744;2023-07-29T14:15:03;24.20;;;0.80;;
2772;SDS011;1394;47.044;15.744;2023-07-29T14:17:31;24.30;;;1.00;;
2772;SDS011;1394;47.044;15.744;2023-07-29T14:19:59;24.30;;;0.90;;
2772;SDS011;1394;47.044;15.744;2023-07-29T14:22:30;24.10;;;0.80;;
2772;SDS011;1394;47.044;15.744;2023-07-29T14:25:13;24.10;;;0.70;;
2772;SDS011;1394;47.044;15.744;2023-07-29T14:27:42;24.27;;;0.90;;
2772;SDS011;1394;47.044;15.744;2023-07-29T14:30:10;24.30;;;0.80;;
2772;SDS011;1394;47.044;15.744;2023-07-29T14:32:40;24.30;;;0.90;;
2772;SDS011;1394;47.044;15.744;2023-07-29T14:35:09;24.30;;;0.90;;
2772;SDS011;1394;47.044;15.744;2023-07-29T14:37:38;24.20;;;0.80;;
2772;SDS011;1394;47.044;15.744;2023-07-29T14:40:06;24.10;;;0.90;;
2772;SDS011;1394;47.044;15.744;2023-07-29T14:42:35;24.23;;;0.83;;
2772;SDS011;1394;47.044;15.744;2023-07-29T14:45:03;24.37;;;0.80;;
2772;SDS011;1394;47.044;15.744;2023-07-29T14:47:32;24.07;;;0.90;;
2772;SDS011;1394;47.044;15.744;2023-07-29T14:49:59;24.10;;;0.70;;
2772;SDS011;1394;47.044;15.744;2023-07-29T14:52:28;24.27;;;0.90;;
2772;SDS011;1394;47.044;15.744;2023-07-29T14:54:56;24.10;;;0.87;;
2772;SDS011;1394;47.044;15.744;2023-07-29T14:57:24;24.10;;;0.70;;
2772;SDS011;1394;47.044;15.744;2023-07-29T14:59:54;24.23;;;0.83;;
2772;SDS011;1394;47.044;15.744;2023-07-29T15:02:21;24.80;;;0.83;;
2772;SDS011;1394;47.044;15.744;2023-07-29T15:04:50;26.10;;;1.10;;
2772;SDS011;1394;47.044;15.744;2023-07-29T15:07:19;24.00;;;0.83;;
2772;SDS011;1394;47.044;15.744;2023-07-29T15:09:47;24.10;;;0.93;;